createdAt,value
2019-05-06T00:00:13.984Z,101319.77
2019-05-06T00:02:43.591Z,101324.67
2019-05-06T00:05:14.284Z,101323.12
2019-05-06T00:07:44.724Z,101326.77
2019-05-06T00:10:34.202Z,101329.63
2019-05-06T00:13:04.636Z,101320.33
2019-05-06T00:15:34.364Z,101320.03
2019-05-06T00:18:04.506Z,101319.77
2019-05-06T00:20:34.814Z,101315.72
2019-05-06T00:23:05.541Z,101309.67
2019-05-06T00:25:44.156Z,101315.92
2019-05-06T00:28:30.632Z,101311.68
2019-05-06T00:31:12.121Z,101304.54
2019-05-06T00:33:31.444Z,101305.56
2019-05-06T00:36:00.652Z,101303.72
2019-05-06T00:38:29.500Z,101300.86
2019-05-06T00:43:51.492Z,101299.78
2019-05-06T00:46:20.192Z,101298.72
2019-05-06T00:48:48.837Z,101299.08
2019-05-06T00:51:17.522Z,101296.50
2019-05-06T00:53:54.436Z,101294.10
2019-05-06T00:56:24.351Z,101295.28
2019-05-06T00:58:54.418Z,101292.58
2019-05-06T01:01:29.285Z,101291.16
2019-05-06T01:03:53.838Z,101295.50
2019-05-06T01:06:24.557Z,101293.69
2019-05-06T01:08:54.377Z,101299.75
2019-05-06T01:11:23.996Z,101294.69
2019-05-06T01:13:54.614Z,101291.14
2019-05-06T01:16:24.969Z,101287.11
2019-05-06T01:18:54.222Z,101292.33
2019-05-06T01:21:23.847Z,101283.18
2019-05-06T01:23:54.640Z,101284.34
2019-05-06T01:26:24.253Z,101238.46
2019-05-06T01:28:54.591Z,101280.79
2019-05-06T01:31:25.998Z,101288.47
2019-05-06T01:33:54.471Z,101287.44
2019-05-06T01:36:24.922Z,101286.96
2019-05-06T01:38:58.751Z,101288.72
2019-05-06T01:44:09.382Z,101296.03
2019-05-06T01:46:38.095Z,101288.55
2019-05-06T01:49:06.829Z,101291.42
2019-05-06T01:51:35.577Z,101288.18
2019-05-06T01:54:04.445Z,101284.51
2019-05-06T01:56:33.684Z,101289.44
2019-05-06T01:59:04.588Z,101285.40
2019-05-06T02:01:34.191Z,101289.53
2019-05-06T02:04:04.542Z,101284.64
2019-05-06T02:06:34.239Z,101285.31
2019-05-06T02:09:04.538Z,101284.23
2019-05-06T02:11:33.840Z,101285.67
2019-05-06T02:14:04.602Z,101279.84
2019-05-06T02:16:34.349Z,101287.02
2019-05-06T02:19:04.062Z,101279.84
2019-05-06T02:21:34.638Z,101282.22
2019-05-06T02:24:08.066Z,101278.67
2019-05-06T02:26:36.801Z,101282.80
2019-05-06T02:29:07.123Z,101274.36
2019-05-06T02:31:46.529Z,101272.62
2019-05-06T02:34:25.382Z,101274.55
2019-05-06T02:37:11.089Z,101277.33
2019-05-06T02:39:39.832Z,101274.09
2019-05-06T02:42:09.041Z,101268.89
2019-05-06T02:44:37.710Z,101268.13
2019-05-06T02:47:14.047Z,101266.28
2019-05-06T02:49:44.519Z,101272.24
2019-05-06T02:52:14.040Z,101271.11
2019-05-06T02:54:43.050Z,101270.63
2019-05-06T02:57:13.139Z,101270.72
2019-05-06T02:59:44.196Z,101266.77
2019-05-06T03:02:13.941Z,101263.41
2019-05-06T03:04:43.679Z,101262.27
2019-05-06T03:07:14.476Z,101258.23
2019-05-06T03:09:44.542Z,101257.37
2019-05-06T03:12:13.867Z,101254.28
2019-05-06T03:14:43.700Z,101252.94
2019-05-06T03:17:14.031Z,101256.03
2019-05-06T03:19:46.001Z,101255.55
2019-05-06T03:22:18.366Z,101253.61
2019-05-06T03:24:48.866Z,101245.94
2019-05-06T03:27:17.531Z,101246.30
2019-05-06T03:29:46.243Z,101247.66
2019-05-06T03:32:16.670Z,101252.66
2019-05-06T03:35:00.575Z,101249.70
2019-05-06T03:37:17.280Z,101248.23
2019-05-06T03:39:46.335Z,101249.96
2019-05-06T03:42:16.568Z,101244.09
2019-05-06T03:44:47.033Z,101254.58
2019-05-06T03:47:17.343Z,101256.50
2019-05-06T03:49:54.420Z,101255.16
2019-05-06T03:52:23.269Z,101248.83
2019-05-06T03:54:53.686Z,101242.76
2019-05-06T03:57:24.167Z,101245.94
2019-05-06T03:59:53.622Z,101245.27
2019-05-06T04:02:24.447Z,101242.47
2019-05-06T04:04:56.390Z,101243.80
2019-05-06T04:07:23.880Z,101243.70
2019-05-06T04:09:53.531Z,101238.39
2019-05-06T04:12:24.200Z,101236.22
2019-05-06T04:14:54.289Z,101230.92
2019-05-06T04:17:32.890Z,101235.05
2019-05-06T04:20:13.498Z,101237.27
2019-05-06T04:22:46.531Z,101243.04
2019-05-06T04:25:34.921Z,101239.69
2019-05-06T04:28:05.819Z,101233.53
2019-05-06T04:30:34.584Z,101240.73
2019-05-06T04:33:03.561Z,101239.39
2019-05-06T04:35:33.757Z,101241.02
2019-05-06T04:38:03.339Z,101235.86
2019-05-06T04:40:33.161Z,101234.97
2019-05-06T04:43:03.606Z,101237.20
2019-05-06T04:45:33.762Z,101233.55
2019-05-06T04:48:03.682Z,101230.67
2019-05-06T04:50:33.262Z,101231.72
2019-05-06T04:53:05.659Z,101228.45
2019-05-06T04:55:35.970Z,101233.07
2019-05-06T04:58:06.571Z,101234.70
2019-05-06T05:00:37.518Z,101231.34
2019-05-06T05:03:06.393Z,101230.37
2019-05-06T05:05:35.393Z,101224.59
2019-05-06T05:08:04.175Z,101230.91
2019-05-06T05:10:43.172Z,101235.79
2019-05-06T05:13:23.187Z,101234.70
2019-05-06T05:15:59.421Z,101231.91
2019-05-06T05:18:32.036Z,101227.47
2019-05-06T05:21:02.423Z,101235.13
2019-05-06T05:23:31.934Z,101225.79
2019-05-06T05:26:02.766Z,101216.54
2019-05-06T05:28:32.059Z,101216.69
2019-05-06T05:31:02.881Z,101220.02
2019-05-06T05:33:32.709Z,101221.60
2019-05-06T05:36:02.196Z,101217.83
2019-05-06T05:38:32.107Z,101214.31
2019-05-06T05:41:03.050Z,101220.26
2019-05-06T05:43:33.707Z,101217.27
2019-05-06T05:46:03.079Z,101228.61
2019-05-06T05:48:39.174Z,101228.33
2019-05-06T05:51:07.857Z,101225.80
2019-05-06T05:53:36.514Z,101225.36
2019-05-06T05:56:05.605Z,101229.11
2019-05-06T05:58:34.393Z,101220.47
2019-05-06T06:01:04.176Z,101221.04
2019-05-06T06:03:33.016Z,101225.84
2019-05-06T06:06:03.045Z,101221.54
2019-05-06T06:08:32.325Z,101227.13
2019-05-06T06:11:12.311Z,101221.00
2019-05-06T06:13:43.299Z,101223.91
2019-05-06T06:16:29.538Z,101230.15
2019-05-06T06:19:03.245Z,101225.97
2019-05-06T06:21:46.324Z,101232.88
2019-05-06T06:24:19.640Z,101234.59
2019-05-06T06:26:48.328Z,101231.94
2019-05-06T06:29:17.062Z,101232.34
2019-05-06T06:31:47.868Z,101232.20
2019-05-06T06:34:18.616Z,101233.70
2019-05-06T06:36:57.690Z,101229.69
2019-05-06T06:39:28.022Z,101232.47
2019-05-06T06:41:56.896Z,101229.88
2019-05-06T06:44:27.449Z,101234.61
2019-05-06T06:46:56.108Z,101229.03
2019-05-06T06:49:24.854Z,101227.91
2019-05-06T06:51:53.582Z,101218.84
2019-05-06T06:54:22.842Z,101230.80
2019-05-06T06:57:06.217Z,101230.91
2019-05-06T06:59:28.694Z,101226.52
2019-05-06T07:02:16.081Z,101220.05
2019-05-06T07:04:52.609Z,101218.45
2019-05-06T07:07:23.085Z,101224.53
2019-05-06T07:09:52.633Z,101225.67
2019-05-06T07:12:23.459Z,101223.99
2019-05-06T07:14:53.860Z,101230.13
2019-05-06T07:17:22.891Z,101224.27
2019-05-06T07:19:56.294Z,101227.10
2019-05-06T07:22:26.619Z,101229.45
2019-05-06T07:24:55.374Z,101228.25
2019-05-06T07:27:25.776Z,101222.48
2019-05-06T07:29:54.483Z,101215.27
2019-05-06T07:32:23.332Z,101223.05
2019-05-06T07:34:53.062Z,101215.43
2019-05-06T07:37:22.236Z,101225.26
2019-05-06T07:39:52.951Z,101218.06
2019-05-06T07:45:39.631Z,101206.66
2019-05-06T07:48:09.965Z,101210.86
2019-05-06T07:50:38.783Z,101219.23
2019-05-06T07:53:07.827Z,101214.60
2019-05-06T07:55:37.727Z,101224.25
2019-05-06T07:58:06.977Z,101216.41
2019-05-06T08:00:35.749Z,101214.84
2019-05-06T08:03:04.649Z,101216.73
2019-05-06T08:05:33.367Z,101217.80
2019-05-06T08:08:03.589Z,101217.97
2019-05-06T08:10:33.283Z,101222.28
2019-05-06T08:13:03.047Z,101218.50
2019-05-06T08:15:32.776Z,101212.67
2019-05-06T08:18:03.398Z,101217.20
2019-05-06T08:20:38.635Z,101211.91
2019-05-06T08:23:17.466Z,101200.63
2019-05-06T08:25:54.381Z,101215.52
2019-05-06T08:28:22.525Z,101214.48
2019-05-06T08:30:53.143Z,101214.84
2019-05-06T08:33:22.068Z,101202.42
2019-05-06T08:35:53.319Z,101207.11
2019-05-06T08:38:22.610Z,101210.53
2019-05-06T08:40:52.553Z,101230.67
2019-05-06T08:43:21.957Z,101244.35
2019-05-06T08:45:52.656Z,101243.06
2019-05-06T08:48:22.032Z,101243.55
2019-05-06T08:50:52.903Z,101248.55
2019-05-06T08:53:26.613Z,101244.83
2019-05-06T08:55:56.991Z,101238.42
2019-05-06T08:58:43.743Z,101242.34
2019-05-06T09:01:14.860Z,101243.91
2019-05-06T09:03:43.537Z,101241.30
2019-05-06T09:06:24.514Z,101235.34
2019-05-06T09:08:43.018Z,101229.01
2019-05-06T09:11:12.198Z,101227.14
2019-05-06T09:13:42.861Z,101227.14
2019-05-06T09:16:12.944Z,101223.83
2019-05-06T09:18:42.602Z,101230.24
2019-05-06T09:21:12.321Z,101235.27
2019-05-06T09:23:42.394Z,101232.45
2019-05-06T09:26:13.135Z,101225.86
2019-05-06T09:28:43.624Z,101225.58
2019-05-06T09:31:14.086Z,101226.80
2019-05-06T09:33:44.382Z,101215.44
2019-05-06T09:36:13.069Z,101212.30
2019-05-06T09:38:42.433Z,101197.22
2019-05-06T09:41:12.408Z,101198.84
2019-05-06T09:43:43.291Z,101194.90
2019-05-06T09:46:12.888Z,101191.84
2019-05-06T09:48:43.842Z,101182.30
2019-05-06T09:51:13.196Z,101183.19
2019-05-06T09:53:49.373Z,101188.59
2019-05-06T09:56:19.831Z,101207.41
2019-05-06T09:58:50.008Z,101212.55
2019-05-06T10:01:18.745Z,101207.80
2019-05-06T10:03:47.460Z,101210.99
2019-05-06T10:06:16.186Z,101217.34
2019-05-06T10:08:44.965Z,101221.87
2019-05-06T10:11:13.712Z,101223.23
2019-05-06T10:13:43.136Z,101209.87
2019-05-06T10:16:12.993Z,101203.88
2019-05-06T10:18:42.004Z,101205.50
2019-05-06T10:21:12.492Z,101207.61
2019-05-06T10:23:42.279Z,101199.08
2019-05-06T10:26:12.985Z,101203.06
2019-05-06T10:28:43.536Z,101212.39
2019-05-06T10:31:13.893Z,101210.02
2019-05-06T10:34:02.850Z,101218.12
2019-05-06T10:36:37.913Z,101216.80
2019-05-06T10:39:09.496Z,101232.42
2019-05-06T10:41:42.258Z,101242.66
2019-05-06T10:44:16.568Z,101231.85
2019-05-06T10:46:46.724Z,101245.78
2019-05-06T10:49:15.422Z,101233.02
2019-05-06T10:51:48.516Z,101233.53
2019-05-06T10:54:17.304Z,101222.16
2019-05-06T10:56:52.933Z,101223.03
2019-05-06T10:59:21.918Z,101216.00
2019-05-06T11:01:52.357Z,101208.67
2019-05-06T11:04:22.515Z,101198.06
2019-05-06T11:06:52.549Z,101204.62
2019-05-06T11:09:22.637Z,101194.47
2019-05-06T11:11:53.117Z,101201.58
2019-05-06T11:14:22.911Z,101206.86
2019-05-06T11:16:51.817Z,101193.56
2019-05-06T11:19:22.315Z,101199.85
2019-05-06T11:21:53.156Z,101190.56
2019-05-06T11:24:23.111Z,101189.25
2019-05-06T11:26:53.514Z,101185.97
2019-05-06T11:29:23.828Z,101186.63
2019-05-06T11:31:56.865Z,101199.84
2019-05-06T11:34:36.087Z,101213.78
2019-05-06T11:37:24.877Z,101208.88
2019-05-06T11:39:53.611Z,101216.70
2019-05-06T11:42:31.721Z,101212.73
2019-05-06T11:44:56.530Z,101212.72
2019-05-06T11:47:25.263Z,101214.60
2019-05-06T11:49:56.487Z,101223.81
2019-05-06T11:52:25.463Z,101233.55
2019-05-06T11:54:54.263Z,101245.08
2019-05-06T11:57:23.288Z,101237.52
2019-05-06T11:59:52.829Z,101229.34
2019-05-06T12:02:23.324Z,101219.67
2019-05-06T12:04:52.828Z,101224.69
2019-05-06T12:07:24.670Z,101213.05
2019-05-06T12:09:53.846Z,101211.02
2019-05-06T12:12:23.385Z,101211.00
2019-05-06T12:14:52.822Z,101209.51
2019-05-06T12:17:22.285Z,101210.39
2019-05-06T12:19:52.794Z,101210.70
2019-05-06T12:22:22.190Z,101205.80
2019-05-06T12:24:52.510Z,101203.25
2019-05-06T12:27:39.377Z,101207.64
2019-05-06T12:30:08.415Z,101217.54
2019-05-06T12:32:38.728Z,101236.69
2019-05-06T12:35:08.181Z,101255.50
2019-05-06T12:37:38.459Z,101269.87
2019-05-06T12:40:07.486Z,101253.25
2019-05-06T12:42:37.814Z,101249.72
2019-05-06T12:45:08.712Z,101242.91
2019-05-06T12:47:45.018Z,101233.84
2019-05-06T12:50:14.375Z,101231.66
2019-05-06T12:52:44.241Z,101238.89
2019-05-06T12:55:21.541Z,101237.94
2019-05-06T12:57:45.234Z,101240.23
2019-05-06T13:00:14.318Z,101239.16
2019-05-06T13:02:43.867Z,101244.18
2019-05-06T13:05:13.214Z,101245.17
2019-05-06T13:07:47.696Z,101242.08
2019-05-06T13:10:19.774Z,101238.84
2019-05-06T13:12:50.093Z,101234.94
2019-05-06T13:15:18.956Z,101235.07
2019-05-06T13:17:47.675Z,101232.65
2019-05-06T13:20:17.014Z,101232.40
2019-05-06T13:22:47.366Z,101220.65
2019-05-06T13:25:16.270Z,101227.54
2019-05-06T13:27:45.596Z,101231.57
2019-05-06T13:30:14.830Z,101233.53
2019-05-06T13:35:39.032Z,101233.24
2019-05-06T13:38:07.779Z,101240.20
2019-05-06T13:40:51.331Z,101234.83
2019-05-06T13:45:52.560Z,101230.23
2019-05-06T13:48:39.328Z,101228.03
2019-05-06T13:51:09.639Z,101227.38
2019-05-06T13:53:41.722Z,101226.59
2019-05-06T13:56:08.764Z,101225.16
2019-05-06T13:58:37.535Z,101225.70
2019-05-06T14:01:07.955Z,101227.36
2019-05-06T14:03:36.831Z,101224.05
2019-05-06T14:06:05.536Z,101221.10
2019-05-06T14:08:34.306Z,101226.52
2019-05-06T14:11:03.141Z,101225.95
2019-05-06T14:13:32.722Z,101221.84
2019-05-06T14:16:03.922Z,101220.13
2019-05-06T14:18:33.257Z,101221.67
2019-05-06T14:21:03.119Z,101225.77
2019-05-06T14:23:32.708Z,101225.62
2019-05-06T14:26:19.621Z,101223.08
2019-05-06T14:28:49.938Z,101229.70
2019-05-06T14:31:25.327Z,101233.66
2019-05-06T14:33:52.259Z,101227.30
2019-05-06T14:36:23.057Z,101225.64
2019-05-06T14:38:54.219Z,101229.08
2019-05-06T14:41:26.733Z,101226.86
2019-05-06T14:43:55.196Z,101229.37
2019-05-06T14:46:23.942Z,101234.81
2019-05-06T14:48:53.431Z,101240.67
2019-05-06T14:51:22.407Z,101247.92
2019-05-06T14:53:53.001Z,101242.01
2019-05-06T14:56:26.049Z,101247.45
2019-05-06T15:01:45.413Z,101244.59
2019-05-06T15:04:13.422Z,101249.02
2019-05-06T15:06:42.701Z,101244.59
2019-05-06T15:09:13.337Z,101249.53
2019-05-06T15:11:43.411Z,101251.13
2019-05-06T15:14:13.042Z,101254.72
2019-05-06T15:16:42.342Z,101245.64
2019-05-06T15:19:12.902Z,101243.13
2019-05-06T15:21:42.788Z,101247.41
2019-05-06T15:24:13.797Z,101250.58
2019-05-06T15:26:42.538Z,101249.80
2019-05-06T15:29:12.670Z,101252.38
2019-05-06T15:31:46.190Z,101244.02
2019-05-06T15:34:19.459Z,101247.66
2019-05-06T15:36:55.752Z,101252.24
2019-05-06T15:39:24.417Z,101246.02
2019-05-06T15:41:56.505Z,101248.75
2019-05-06T15:44:37.486Z,101251.67
2019-05-06T15:47:06.165Z,101250.31
2019-05-06T15:49:34.901Z,101246.73
2019-05-06T15:52:03.816Z,101245.06
2019-05-06T15:54:32.533Z,101247.78
2019-05-06T15:57:01.298Z,101246.77
2019-05-06T15:59:33.290Z,101247.78
2019-05-06T16:02:01.942Z,101243.37
2019-05-06T16:04:32.538Z,101248.47
2019-05-06T16:07:02.866Z,101247.38
2019-05-06T16:09:32.470Z,101243.37
2019-05-06T16:12:03.015Z,101245.44
2019-05-06T16:14:34.745Z,101242.98
2019-05-06T16:17:02.279Z,101252.23
2019-05-06T16:19:33.080Z,101253.80
2019-05-06T16:22:03.906Z,101244.20
2019-05-06T16:24:35.180Z,101245.41
2019-05-06T16:27:04.122Z,101254.27
2019-05-06T16:29:35.855Z,101246.57
2019-05-06T16:32:06.021Z,101247.37
2019-05-06T16:34:34.719Z,101251.93
2019-05-06T16:37:03.484Z,101249.13
2019-05-06T16:39:33.119Z,101251.61
2019-05-06T16:42:03.663Z,101256.23
2019-05-06T16:44:32.555Z,101251.58
2019-05-06T16:47:02.863Z,101247.77
2019-05-06T16:49:33.206Z,101247.55
2019-05-06T16:52:02.737Z,101238.94
2019-05-06T16:54:34.578Z,101243.52
2019-05-06T16:57:04.268Z,101242.88
2019-05-06T16:59:33.585Z,101241.78
2019-05-06T17:02:03.978Z,101241.35
2019-05-06T17:04:34.283Z,101239.48
2019-05-06T17:07:03.203Z,101238.32
2019-05-06T17:09:33.119Z,101243.78
2019-05-06T17:12:04.444Z,101247.53
2019-05-06T17:14:32.599Z,101243.97
2019-05-06T17:17:03.270Z,101243.11
2019-05-06T17:19:32.425Z,101250.42
2019-05-06T17:22:02.988Z,101244.08
2019-05-06T17:24:33.096Z,101242.47
2019-05-06T17:27:02.820Z,101249.80
2019-05-06T17:29:45.391Z,101252.50
2019-05-06T17:32:15.723Z,101256.72
2019-05-06T17:34:46.421Z,101251.78
2019-05-06T17:37:36.564Z,101251.55
2019-05-06T17:40:10.100Z,101260.66
2019-05-06T17:42:35.616Z,101254.28
2019-05-06T17:45:08.684Z,101253.45
2019-05-06T17:47:38.988Z,101262.94
2019-05-06T17:50:07.917Z,101263.78
2019-05-06T17:52:37.023Z,101267.13
2019-05-06T17:55:06.302Z,101272.16
2019-05-06T17:57:34.999Z,101266.39
2019-05-06T18:00:05.717Z,101270.82
2019-05-06T18:02:34.449Z,101280.32
2019-05-06T18:05:03.350Z,101280.59
2019-05-06T18:07:32.705Z,101285.27
2019-05-06T18:10:03.065Z,101284.16
2019-05-06T18:12:32.845Z,101284.66
2019-05-06T18:15:02.764Z,101285.91
2019-05-06T18:17:33.135Z,101281.23
2019-05-06T18:20:02.976Z,101285.66
2019-05-06T18:22:33.711Z,101288.13
2019-05-06T18:25:02.949Z,101282.25
2019-05-06T18:27:32.618Z,101293.94
2019-05-06T18:30:13.417Z,101283.34
2019-05-06T18:32:32.810Z,101288.88
2019-05-06T18:35:02.801Z,101291.23
2019-05-06T18:37:33.200Z,101285.42
2019-05-06T18:40:02.188Z,101288.52
2019-05-06T18:42:32.785Z,101292.81
2019-05-06T18:45:02.763Z,101295.17
2019-05-06T18:47:33.054Z,101291.11
2019-05-06T18:50:02.455Z,101294.56
2019-05-06T18:52:32.247Z,101303.30
2019-05-06T18:55:01.476Z,101299.70
2019-05-06T18:57:32.303Z,101297.50
2019-05-06T19:00:02.933Z,101305.27
2019-05-06T19:02:31.161Z,101307.70
2019-05-06T19:05:02.308Z,101308.94
2019-05-06T19:07:33.279Z,101308.94
2019-05-06T19:10:09.209Z,101307.35
2019-05-06T19:12:41.372Z,101306.23
2019-05-06T19:15:08.462Z,101310.44
2019-05-06T19:17:37.255Z,101312.64
2019-05-06T19:20:07.546Z,101313.37
2019-05-06T19:22:36.213Z,101318.89
2019-05-06T19:25:05.248Z,101320.61
2019-05-06T19:27:33.988Z,101319.98
2019-05-06T19:30:03.349Z,101318.63
2019-05-06T19:32:34.976Z,101312.08
2019-05-06T19:35:02.974Z,101317.75
2019-05-06T19:37:32.845Z,101313.14
2019-05-06T19:40:02.915Z,101317.69
2019-05-06T19:42:45.788Z,101324.31
2019-05-06T19:45:02.674Z,101323.19
2019-05-06T19:47:31.928Z,101330.54
2019-05-06T19:50:02.848Z,101326.10
2019-05-06T19:52:32.650Z,101331.48
2019-05-06T19:55:03.099Z,101325.94
2019-05-06T19:57:32.457Z,101331.92
2019-05-06T20:00:03.238Z,101334.14
2019-05-06T20:02:32.083Z,101337.55
2019-05-06T20:05:03.285Z,101330.41
2019-05-06T20:07:34.195Z,101336.39
2019-05-06T20:10:13.513Z,101332.80
2019-05-06T20:12:58.369Z,101332.41
2019-05-06T20:15:32.352Z,101341.09
2019-05-06T20:18:03.048Z,101328.89
2019-05-06T20:20:34.711Z,101336.21
2019-05-06T20:23:02.663Z,101329.77
2019-05-06T20:25:31.585Z,101333.94
2019-05-06T20:28:02.301Z,101335.53
2019-05-06T20:30:32.661Z,101332.89
2019-05-06T20:33:01.226Z,101327.83
2019-05-06T20:35:32.012Z,101334.54
2019-05-06T20:38:02.594Z,101330.55
2019-05-06T20:40:32.690Z,101335.70
2019-05-06T20:43:14.082Z,101328.51
2019-05-06T20:45:35.072Z,101326.90
2019-05-06T20:48:03.233Z,101326.15
2019-05-06T20:50:32.314Z,101322.41
2019-05-06T20:53:01.128Z,101325.19
2019-05-06T20:55:50.494Z,101328.25
2019-05-06T20:58:19.174Z,101329.98
2019-05-06T21:00:47.907Z,101332.33
2019-05-06T21:03:16.578Z,101333.28
2019-05-06T21:05:45.334Z,101334.58
2019-05-06T21:08:13.996Z,101334.52
2019-05-06T21:10:42.884Z,101336.80
2019-05-06T21:13:13.349Z,101334.56
2019-05-06T21:15:43.177Z,101332.36
2019-05-06T21:18:12.406Z,101337.39
2019-05-06T21:20:43.349Z,101337.00
2019-05-06T21:23:11.620Z,101336.50
2019-05-06T21:25:40.385Z,101342.89
2019-05-06T21:28:09.075Z,101353.45
2019-05-06T21:30:38.078Z,101372.23
2019-05-06T21:33:06.876Z,101369.47
2019-05-06T21:35:35.569Z,101358.67
2019-05-06T21:38:04.336Z,101345.19
2019-05-06T21:40:33.078Z,101349.36
2019-05-06T21:43:02.194Z,101344.88
2019-05-06T21:45:33.160Z,101342.33
2019-05-06T21:48:02.792Z,101344.83
2019-05-06T21:50:33.099Z,101348.98
2019-05-06T21:53:02.905Z,101342.93
2019-05-06T21:55:32.581Z,101343.59
2019-05-06T21:58:02.192Z,101343.20
2019-05-06T22:00:43.367Z,101345.95
2019-05-06T22:03:13.382Z,101339.53
2019-05-06T22:05:42.412Z,101340.16
2019-05-06T22:08:12.876Z,101339.08
2019-05-06T22:10:42.274Z,101340.72
2019-05-06T22:13:14.635Z,101335.48
2019-05-06T22:15:43.486Z,101329.53
2019-05-06T22:18:12.688Z,101329.73
2019-05-06T22:20:59.220Z,101323.31
2019-05-06T22:23:29.544Z,101325.34
2019-05-06T22:26:10.809Z,101324.58
2019-05-06T22:28:28.636Z,101321.72
2019-05-06T22:30:57.400Z,101319.16
2019-05-06T22:33:26.075Z,101323.03
2019-05-06T22:35:55.002Z,101322.38
2019-05-06T22:38:23.771Z,101318.16
2019-05-06T22:40:53.058Z,101321.98
2019-05-06T22:43:22.041Z,101322.89
2019-05-06T22:45:50.766Z,101324.64
2019-05-06T22:48:19.498Z,101316.58
2019-05-06T22:50:48.264Z,101317.34
2019-05-06T22:53:16.954Z,101320.72
2019-05-06T22:55:45.726Z,101322.86
2019-05-06T22:58:16.046Z,101324.48
2019-05-06T23:00:46.355Z,101330.09
2019-05-06T23:03:16.702Z,101323.84
2019-05-06T23:05:45.364Z,101329.14
2019-05-06T23:08:14.148Z,101327.88
2019-05-06T23:10:42.838Z,101325.67
2019-05-06T23:13:12.564Z,101329.13
2019-05-06T23:15:42.060Z,101330.86
2019-05-06T23:18:10.866Z,101332.59
2019-05-06T23:20:39.524Z,101332.29
2019-05-06T23:23:08.226Z,101336.53
2019-05-06T23:25:36.980Z,101334.02
2019-05-06T23:28:05.753Z,101332.20
2019-05-06T23:30:34.604Z,101271.73
2019-05-06T23:33:03.384Z,101334.70
2019-05-06T23:35:32.036Z,101332.47
2019-05-06T23:38:36.916Z,101334.51
2019-05-06T23:41:42.409Z,101334.00
2019-05-06T23:44:47.506Z,101335.26
2019-05-06T23:47:53.116Z,101335.15
2019-05-06T23:50:39.041Z,101331.20
2019-05-06T23:53:25.136Z,101329.95
2019-05-06T23:56:30.423Z,101331.97
2019-05-06T23:58:59.107Z,101335.53
